createdAt,value
2018-12-14T00:02:07.635Z,81.60
2018-12-14T00:04:35.451Z,82.10
2018-12-14T00:07:03.181Z,82.10
2018-12-14T00:09:31.338Z,82.10
2018-12-14T00:11:59.925Z,82.70
2018-12-14T00:14:28.092Z,82.60
2018-12-14T00:16:55.842Z,83.60
2018-12-14T00:19:24.473Z,84.10
2018-12-14T00:21:52.183Z,83.90
2018-12-14T00:24:20.787Z,84.30
2018-12-14T00:26:48.656Z,83.80
2018-12-14T00:29:16.564Z,83.80
2018-12-14T00:31:44.804Z,84.60
2018-12-14T00:34:13.486Z,83.90
2018-12-14T00:36:41.845Z,83.80
2018-12-14T00:39:09.552Z,83.50
2018-12-14T00:41:37.410Z,83.10
2018-12-14T00:44:05.102Z,83.00
2018-12-14T00:46:35.202Z,83.10
2018-12-14T00:49:02.908Z,83.00
2018-12-14T00:51:30.785Z,83.20
2018-12-14T00:53:58.511Z,84.00
2018-12-14T00:56:27.519Z,83.80
2018-12-14T00:58:55.264Z,83.90
2018-12-14T01:01:23.003Z,83.90
2018-12-14T01:03:51.121Z,83.60
2018-12-14T01:06:18.855Z,83.60
2018-12-14T01:08:48.448Z,83.60
2018-12-14T01:11:16.338Z,83.60
2018-12-14T01:13:44.121Z,83.60
2018-12-14T01:16:12.616Z,83.80
2018-12-14T01:18:40.402Z,83.80
2018-12-14T01:21:09.101Z,84.20
2018-12-14T01:23:36.961Z,84.30
2018-12-14T01:26:06.378Z,83.90
2018-12-14T01:28:34.751Z,83.60
2018-12-14T01:31:02.561Z,83.20
2018-12-14T01:33:30.319Z,83.30
2018-12-14T01:35:59.024Z,83.60
2018-12-14T01:38:26.810Z,83.00
2018-12-14T01:40:55.112Z,82.80
2018-12-14T01:43:22.783Z,82.20
2018-12-14T01:45:50.618Z,82.20
2018-12-14T01:48:18.281Z,82.30
2018-12-14T01:50:46.107Z,82.70
2018-12-14T01:53:13.852Z,83.60
2018-12-14T01:55:42.594Z,83.70
2018-12-14T01:58:10.298Z,84.20
2018-12-14T02:00:38.059Z,84.20
2018-12-14T02:03:05.813Z,84.00
2018-12-14T02:05:33.803Z,84.10
2018-12-14T02:08:02.182Z,84.30
2018-12-14T02:10:31.177Z,84.10
2018-12-14T02:12:58.916Z,84.20
2018-12-14T02:15:26.676Z,83.90
2018-12-14T02:17:54.613Z,84.70
2018-12-14T02:20:22.385Z,84.60
2018-12-14T02:22:51.108Z,85.30
2018-12-14T02:25:19.008Z,84.40
2018-12-14T02:27:47.391Z,84.50
2018-12-14T02:30:18.715Z,84.50
2018-12-14T02:32:46.424Z,84.80
2018-12-14T02:35:14.182Z,85.20
2018-12-14T02:37:42.010Z,85.20
2018-12-14T02:40:09.850Z,85.00
2018-12-14T02:42:37.721Z,84.90
2018-12-14T02:45:06.273Z,85.30
2018-12-14T02:47:34.144Z,84.80
2018-12-14T02:50:02.715Z,84.90
2018-12-14T02:52:31.357Z,85.90
2018-12-14T02:54:59.153Z,85.80
2018-12-14T02:57:26.875Z,84.90
2018-12-14T02:59:54.647Z,85.30
2018-12-14T03:02:22.392Z,84.70
2018-12-14T03:04:50.143Z,85.60
2018-12-14T03:07:17.854Z,86.10
2018-12-14T03:09:45.864Z,86.00
2018-12-14T03:12:13.674Z,85.70
2018-12-14T03:14:41.414Z,85.20
2018-12-14T03:17:09.660Z,85.30
2018-12-14T03:19:37.439Z,85.00
2018-12-14T03:22:05.292Z,84.40
2018-12-14T03:24:33.775Z,83.80
2018-12-14T03:27:01.639Z,83.70
2018-12-14T03:29:29.392Z,83.60
2018-12-14T03:31:57.199Z,83.20
2018-12-14T03:34:25.026Z,82.90
2018-12-14T03:36:52.745Z,82.70
2018-12-14T03:39:20.469Z,82.60
2018-12-14T03:41:48.097Z,82.60
2018-12-14T03:44:15.843Z,82.60
2018-12-14T03:46:43.627Z,82.40
2018-12-14T03:49:11.428Z,82.00
2018-12-14T03:51:39.289Z,81.90
2018-12-14T03:54:07.042Z,81.80
2018-12-14T03:56:34.867Z,81.80
2018-12-14T03:59:03.269Z,81.80
2018-12-14T04:01:30.987Z,81.30
2018-12-14T04:03:58.796Z,81.80
2018-12-14T04:06:26.478Z,81.40
2018-12-14T04:08:54.693Z,81.60
2018-12-14T04:11:23.131Z,81.60
2018-12-14T04:13:51.147Z,81.80
2018-12-14T04:16:18.973Z,81.40
2018-12-14T04:18:48.897Z,81.00
2018-12-14T04:21:17.478Z,80.00
2018-12-14T04:23:45.611Z,79.80
2018-12-14T04:26:13.311Z,79.80
2018-12-14T04:28:41.364Z,79.50
2018-12-14T04:31:09.710Z,78.90
2018-12-14T04:33:37.647Z,79.30
2018-12-14T04:36:05.367Z,79.50
2018-12-14T04:38:33.485Z,79.10
2018-12-14T04:41:01.304Z,78.50
2018-12-14T04:43:29.059Z,78.30
2018-12-14T04:45:56.779Z,77.60
2018-12-14T04:48:24.466Z,77.60
2018-12-14T04:50:52.212Z,78.10
2018-12-14T04:53:20.374Z,77.60
2018-12-14T04:55:48.090Z,77.60
2018-12-14T04:58:15.823Z,77.60
2018-12-14T05:00:43.544Z,76.90
2018-12-14T05:03:11.364Z,77.60
2018-12-14T05:05:39.196Z,77.60
2018-12-14T05:08:09.377Z,76.20
2018-12-14T05:10:37.123Z,76.10
2018-12-14T05:13:05.852Z,75.40
2018-12-14T05:15:33.572Z,74.40
2018-12-14T05:18:01.854Z,74.40
2018-12-14T05:20:30.434Z,74.40
2018-12-14T05:22:59.928Z,73.20
2018-12-14T05:25:28.015Z,73.10
2018-12-14T05:27:56.022Z,72.80
2018-12-14T05:30:23.819Z,72.60
2018-12-14T05:32:52.354Z,72.70
2018-12-14T05:35:20.088Z,73.20
2018-12-14T05:37:48.717Z,72.30
2018-12-14T05:40:16.443Z,71.60
2018-12-14T05:42:44.189Z,71.30
2018-12-14T05:45:11.912Z,70.40
2018-12-14T05:47:40.123Z,70.90
2018-12-14T05:50:08.267Z,69.20
2018-12-14T05:52:36.081Z,69.50
2018-12-14T05:55:04.718Z,69.60
2018-12-14T05:57:32.554Z,69.20
2018-12-14T06:00:00.292Z,68.50
2018-12-14T06:02:28.099Z,69.30
2018-12-14T06:04:56.279Z,67.90
2018-12-14T06:07:24.040Z,68.50
2018-12-14T06:09:52.171Z,69.70
2018-12-14T06:12:19.866Z,67.40
2018-12-14T06:14:47.816Z,68.60
2018-12-14T06:17:16.387Z,67.10
2018-12-14T06:19:44.368Z,67.70
2018-12-14T06:22:12.367Z,66.40
2018-12-14T06:24:40.117Z,64.70
2018-12-14T06:27:07.802Z,64.00
2018-12-14T06:29:35.516Z,64.70
2018-12-14T06:32:03.236Z,64.90
2018-12-14T06:34:31.293Z,65.20
2018-12-14T06:37:00.627Z,65.70
2018-12-14T06:39:28.940Z,65.00
2018-12-14T06:41:58.081Z,65.50
2018-12-14T06:44:26.287Z,65.50
2018-12-14T06:46:54.363Z,65.90
2018-12-14T06:49:22.056Z,65.80
2018-12-14T06:51:49.894Z,65.10
2018-12-14T06:54:17.660Z,65.20
2018-12-14T06:56:45.509Z,64.70
2018-12-14T06:59:13.192Z,64.60
2018-12-14T07:01:40.976Z,64.40
2018-12-14T07:04:08.822Z,63.90
2018-12-14T07:06:36.633Z,64.00
2018-12-14T07:09:06.585Z,63.90
2018-12-14T07:11:35.670Z,64.30
2018-12-14T07:14:03.680Z,63.60
2018-12-14T07:16:31.926Z,63.90
2018-12-14T07:18:59.663Z,62.90
2018-12-14T07:21:27.459Z,63.60
2018-12-14T07:23:55.263Z,61.30
2018-12-14T07:26:23.011Z,60.80
2018-12-14T07:28:52.416Z,59.30
2018-12-14T07:31:20.617Z,58.70
2018-12-14T07:33:48.634Z,57.20
2018-12-14T07:36:16.409Z,57.40
2018-12-14T07:38:48.088Z,56.50
2018-12-14T07:41:14.153Z,57.80
2018-12-14T07:43:42.556Z,58.90
2018-12-14T07:46:10.305Z,59.30
2018-12-14T07:48:38.016Z,60.30
2018-12-14T07:51:05.786Z,60.90
2018-12-14T07:53:33.552Z,60.90
2018-12-14T07:56:01.627Z,61.70
2018-12-14T07:58:29.423Z,60.70
2018-12-14T08:00:57.250Z,61.00
2018-12-14T08:03:25.202Z,60.50
2018-12-14T08:05:53.038Z,59.80
2018-12-14T08:08:21.776Z,60.80
2018-12-14T08:10:50.402Z,61.50
2018-12-14T08:13:19.488Z,62.50
2018-12-14T08:15:51.598Z,62.70
2018-12-14T08:18:19.323Z,62.90
2018-12-14T08:20:47.754Z,62.60
2018-12-14T08:23:15.841Z,63.40
2018-12-14T08:25:43.542Z,61.50
2018-12-14T08:28:12.082Z,61.40
2018-12-14T08:30:39.787Z,62.00
2018-12-14T08:33:07.659Z,62.30
2018-12-14T08:35:35.473Z,63.00
2018-12-14T08:38:04.614Z,63.40
2018-12-14T08:40:32.451Z,62.20
2018-12-14T08:43:00.291Z,62.60
2018-12-14T08:45:29.652Z,61.90
2018-12-14T08:47:57.641Z,61.50
2018-12-14T08:50:25.591Z,61.00
2018-12-14T08:52:53.486Z,61.90
2018-12-14T08:55:21.229Z,61.40
2018-12-14T08:57:49.005Z,61.60
2018-12-14T09:00:17.118Z,61.70
2018-12-14T09:02:44.879Z,61.20
2018-12-14T09:05:12.693Z,62.50
2018-12-14T09:07:40.411Z,62.40
2018-12-14T09:10:08.212Z,61.40
2018-12-14T09:12:36.603Z,60.70
2018-12-14T09:15:04.393Z,61.90
2018-12-14T09:17:32.638Z,59.90
2018-12-14T09:20:00.613Z,61.00
2018-12-14T09:22:28.378Z,61.60
2018-12-14T09:24:56.114Z,61.70
2018-12-14T09:27:24.621Z,59.90
2018-12-14T09:29:52.791Z,60.10
2018-12-14T09:32:20.618Z,60.50
2018-12-14T09:34:48.336Z,60.30
2018-12-14T09:37:16.171Z,61.70
2018-12-14T09:39:43.874Z,59.80
2018-12-14T09:42:11.744Z,61.00
2018-12-14T09:44:40.270Z,59.60
2018-12-14T09:47:08.818Z,58.10
2018-12-14T09:49:38.817Z,56.80
2018-12-14T09:52:06.795Z,57.50
2018-12-14T09:54:34.812Z,59.60
2018-12-14T09:57:03.846Z,59.60
2018-12-14T09:59:32.266Z,58.20
2018-12-14T10:02:06.761Z,58.30
2018-12-14T10:04:34.525Z,57.00
2018-12-14T10:07:02.751Z,58.10
2018-12-14T10:09:31.244Z,57.90
2018-12-14T10:11:59.967Z,57.60
2018-12-14T10:14:28.323Z,56.60
2018-12-14T10:16:56.144Z,56.00
2018-12-14T10:19:23.810Z,56.60
2018-12-14T10:21:52.530Z,56.30
2018-12-14T10:24:28.598Z,56.40
2018-12-14T10:26:57.609Z,55.40
2018-12-14T10:29:25.362Z,54.40
2018-12-14T10:31:53.347Z,52.80
2018-12-14T10:34:21.985Z,55.30
2018-12-14T10:36:49.865Z,52.10
2018-12-14T10:39:17.881Z,52.80
2018-12-14T10:41:45.641Z,53.60
2018-12-14T10:44:13.482Z,53.20
2018-12-14T10:46:41.380Z,50.80
2018-12-14T10:49:09.151Z,51.50
2018-12-14T10:51:37.490Z,50.00
2018-12-14T10:54:05.373Z,49.70
2018-12-14T10:56:33.132Z,48.80
2018-12-14T10:59:00.883Z,48.60
2018-12-14T11:01:31.469Z,47.80
2018-12-14T11:03:59.148Z,47.20
2018-12-14T11:06:27.009Z,46.50
2018-12-14T11:08:55.853Z,47.10
2018-12-14T11:11:23.624Z,45.20
2018-12-14T11:13:51.494Z,46.00
2018-12-14T11:16:19.198Z,46.40
2018-12-14T11:18:46.926Z,46.10
2018-12-14T11:21:14.700Z,48.40
2018-12-14T11:23:42.269Z,48.40
2018-12-14T11:26:10.011Z,48.50
2018-12-14T11:28:37.832Z,49.90
2018-12-14T11:31:05.984Z,50.10
2018-12-14T11:33:34.512Z,50.10
2018-12-14T11:36:02.395Z,50.10
2018-12-14T11:38:30.086Z,50.30
2018-12-14T11:40:57.964Z,50.80
2018-12-14T11:43:25.814Z,50.40
2018-12-14T11:45:54.261Z,50.10
2018-12-14T11:48:22.153Z,50.10
2018-12-14T11:50:49.803Z,50.10
2018-12-14T11:53:19.438Z,50.60
2018-12-14T11:55:48.880Z,50.70
2018-12-14T11:58:16.686Z,50.20
2018-12-14T12:00:44.489Z,50.10
2018-12-14T12:03:12.300Z,50.10
2018-12-14T12:05:40.066Z,50.40
2018-12-14T12:08:08.912Z,50.10
2018-12-14T12:10:37.126Z,51.00
2018-12-14T12:13:04.863Z,50.20
2018-12-14T12:15:32.940Z,50.80
2018-12-14T12:18:00.672Z,50.20
2018-12-14T12:20:29.054Z,49.40
2018-12-14T12:22:56.942Z,48.60
2018-12-14T12:25:24.629Z,49.50
2018-12-14T12:27:53.569Z,49.10
2018-12-14T12:30:21.641Z,48.60
2018-12-14T12:32:49.254Z,47.80
2018-12-14T12:35:17.040Z,48.90
2018-12-14T12:37:44.785Z,47.00
2018-12-14T12:40:12.461Z,46.40
2018-12-14T12:42:40.154Z,47.20
2018-12-14T12:45:08.145Z,46.90
2018-12-14T12:47:36.090Z,47.00
2018-12-14T12:50:04.109Z,47.50
2018-12-14T12:52:32.548Z,47.00
2018-12-14T12:55:00.311Z,48.00
2018-12-14T12:57:28.755Z,46.40
2018-12-14T12:59:56.520Z,45.90
2018-12-14T13:02:24.407Z,46.50
2018-12-14T13:04:53.526Z,47.40
2018-12-14T13:07:21.473Z,47.00
2018-12-14T13:09:49.352Z,47.50
2018-12-14T13:12:17.157Z,46.50
2018-12-14T13:14:45.269Z,46.20
2018-12-14T13:17:13.185Z,46.30
2018-12-14T13:19:40.939Z,46.20
2018-12-14T13:22:08.841Z,46.10
2018-12-14T13:24:36.598Z,45.90
2018-12-14T13:27:04.473Z,45.70
2018-12-14T13:29:32.613Z,44.80
2018-12-14T13:32:00.492Z,44.90
2018-12-14T13:34:28.365Z,44.00
2018-12-14T13:36:56.087Z,43.90
2018-12-14T13:39:23.812Z,44.80
2018-12-14T13:41:51.648Z,43.00
2018-12-14T13:44:19.404Z,41.80
2018-12-14T13:46:47.114Z,42.50
2018-12-14T13:49:14.917Z,43.70
2018-12-14T13:51:42.676Z,43.90
2018-12-14T13:54:10.542Z,43.70
2018-12-14T13:56:38.341Z,43.70
2018-12-14T13:59:06.056Z,43.80
2018-12-14T14:01:33.894Z,43.60
2018-12-14T14:04:01.764Z,44.20
2018-12-14T14:06:29.949Z,44.50
2018-12-14T14:08:57.817Z,43.60
2018-12-14T14:11:25.615Z,43.90
2018-12-14T14:13:53.313Z,42.80
2018-12-14T14:16:21.000Z,43.10
2018-12-14T14:18:48.831Z,42.90
2018-12-14T14:21:16.677Z,42.50
2018-12-14T14:23:44.472Z,43.30
2018-12-14T14:26:12.244Z,42.20
2018-12-14T14:28:39.931Z,42.00
2018-12-14T14:31:07.724Z,41.30
2018-12-14T14:33:35.417Z,40.30
2018-12-14T14:36:03.226Z,40.90
2018-12-14T14:38:32.089Z,40.70
2018-12-14T14:41:00.601Z,40.10
2018-12-14T14:43:28.550Z,40.20
2018-12-14T14:45:56.354Z,41.10
2018-12-14T14:48:24.076Z,40.70
2018-12-14T14:50:51.787Z,40.20
2018-12-14T14:53:19.553Z,39.60
2018-12-14T14:55:47.434Z,40.10
2018-12-14T14:58:15.223Z,40.10
2018-12-14T15:00:42.873Z,39.60
2018-12-14T15:03:10.771Z,40.10
2018-12-14T15:05:38.519Z,40.10
2018-12-14T15:08:06.246Z,40.10
2018-12-14T15:10:34.037Z,39.30
2018-12-14T15:13:01.871Z,40.10
2018-12-14T15:15:29.662Z,40.10
2018-12-14T15:17:58.853Z,39.00
2018-12-14T15:20:26.724Z,39.90
2018-12-14T15:22:55.455Z,40.10
2018-12-14T15:25:23.270Z,40.10
2018-12-14T15:27:51.104Z,40.10
2018-12-14T15:30:19.116Z,40.10
2018-12-14T15:32:46.978Z,40.10
2018-12-14T15:35:14.768Z,40.30
2018-12-14T15:37:42.590Z,40.10
2018-12-14T15:40:10.473Z,40.60
2018-12-14T15:42:38.399Z,40.10
2018-12-14T15:45:12.970Z,39.80
2018-12-14T15:47:36.625Z,40.10
2018-12-14T15:50:04.913Z,40.20
2018-12-14T15:52:32.687Z,39.40
2018-12-14T15:55:00.430Z,39.30
2018-12-14T15:57:28.159Z,40.70
2018-12-14T15:59:56.026Z,39.20
2018-12-14T16:02:23.773Z,39.10
2018-12-14T16:04:51.514Z,39.50
2018-12-14T16:07:19.246Z,40.10
2018-12-14T16:09:47.048Z,40.10
2018-12-14T16:12:14.923Z,40.10
2018-12-14T16:14:44.136Z,39.20
2018-12-14T16:17:12.007Z,40.10
2018-12-14T16:19:39.810Z,39.90
2018-12-14T16:22:07.498Z,40.00
2018-12-14T16:24:35.294Z,40.00
2018-12-14T16:27:03.013Z,40.00
2018-12-14T16:29:30.946Z,40.00
2018-12-14T16:32:00.368Z,40.10
2018-12-14T16:34:28.240Z,39.10
2018-12-14T16:36:55.863Z,39.50
2018-12-14T16:39:23.626Z,39.70
2018-12-14T16:41:51.386Z,40.10
2018-12-14T16:44:19.984Z,40.00
2018-12-14T16:46:47.743Z,40.00
2018-12-14T16:49:15.532Z,40.00
2018-12-14T16:51:43.536Z,40.00
2018-12-14T16:54:11.407Z,40.40
2018-12-14T16:56:39.279Z,40.00
2018-12-14T16:59:09.950Z,40.50
2018-12-14T17:01:37.790Z,41.40
2018-12-14T17:04:05.575Z,40.60
2018-12-14T17:06:33.312Z,41.00
2018-12-14T17:09:01.011Z,41.10
2018-12-14T17:11:28.880Z,41.20
2018-12-14T17:13:56.643Z,40.00
2018-12-14T17:16:24.445Z,41.00
2018-12-14T17:18:52.429Z,39.90
2018-12-14T17:21:20.162Z,38.00
2018-12-14T17:23:49.215Z,39.10
2018-12-14T17:26:17.528Z,38.60
2018-12-14T17:28:45.227Z,37.30
2018-12-14T17:31:13.360Z,36.90
2018-12-14T17:33:41.034Z,38.10
2018-12-14T17:36:08.864Z,41.60
2018-12-14T17:38:36.719Z,40.70
2018-12-14T17:41:06.306Z,40.00
2018-12-14T17:43:34.099Z,41.10
2018-12-14T17:46:01.855Z,40.00
2018-12-14T17:48:29.585Z,40.00
2018-12-14T17:50:57.609Z,42.10
2018-12-14T17:53:25.286Z,40.60
2018-12-14T17:55:53.023Z,40.00
2018-12-14T17:58:20.793Z,40.00
2018-12-14T18:00:48.559Z,39.30
2018-12-14T18:03:16.365Z,37.60
2018-12-14T18:05:44.220Z,38.00
2018-12-14T18:08:12.005Z,38.90
2018-12-14T18:10:39.764Z,38.30
2018-12-14T18:13:07.506Z,38.90
2018-12-14T18:15:35.730Z,37.70
2018-12-14T18:18:03.523Z,37.60
2018-12-14T18:20:31.325Z,36.30
2018-12-14T18:22:59.214Z,34.80
2018-12-14T18:25:26.939Z,35.80
2018-12-14T18:27:54.754Z,36.50
2018-12-14T18:30:22.758Z,39.80
2018-12-14T18:32:50.750Z,36.90
2018-12-14T18:35:18.529Z,36.80
2018-12-14T18:37:47.290Z,38.70
2018-12-14T18:40:15.124Z,37.60
2018-12-14T18:42:42.890Z,38.50
2018-12-14T18:45:10.606Z,38.00
2018-12-14T18:47:38.467Z,37.80
2018-12-14T18:50:07.075Z,37.80
2018-12-14T18:52:34.890Z,37.50
2018-12-14T18:55:02.976Z,38.00
2018-12-14T18:57:30.821Z,37.70
2018-12-14T18:59:58.938Z,37.80
2018-12-14T19:02:26.653Z,38.30
2018-12-14T19:04:54.548Z,38.70
2018-12-14T19:07:22.428Z,39.60
2018-12-14T19:09:50.338Z,40.00
2018-12-14T19:12:18.987Z,40.10
2018-12-14T19:14:47.703Z,38.00
2018-12-14T19:17:16.283Z,38.80
2018-12-14T19:19:44.165Z,37.90
2018-12-14T19:22:12.589Z,42.70
2018-12-14T19:24:40.392Z,41.10
2018-12-14T19:27:08.182Z,40.00
2018-12-14T19:29:35.996Z,39.90
2018-12-14T19:32:04.018Z,42.80
2018-12-14T19:34:32.688Z,43.40
2018-12-14T19:37:00.451Z,42.80
2018-12-14T19:39:28.898Z,43.30
2018-12-14T19:41:56.655Z,41.10
2018-12-14T19:44:24.792Z,40.80
2018-12-14T19:46:52.595Z,42.20
2018-12-14T19:49:23.807Z,42.50
2018-12-14T19:51:51.906Z,39.90
2018-12-14T19:57:25.211Z,39.60
2018-12-14T20:02:57.907Z,40.40
2018-12-14T20:05:38.881Z,39.60
2018-12-14T20:08:10.225Z,39.60
2018-12-14T20:10:38.465Z,39.60
2018-12-14T20:13:06.418Z,41.10
2018-12-14T20:15:34.301Z,40.40
2018-12-14T20:18:02.819Z,39.40
2018-12-14T20:20:31.645Z,39.70
2018-12-14T20:22:59.731Z,37.80
2018-12-14T20:25:28.407Z,39.60
2018-12-14T20:27:57.150Z,39.60
2018-12-14T20:30:25.067Z,39.60
2018-12-14T20:32:55.756Z,39.10
2018-12-14T20:35:25.876Z,37.90
2018-12-14T20:37:54.052Z,39.60
2018-12-14T20:40:22.619Z,39.00
2018-12-14T20:42:50.548Z,39.60
2018-12-14T20:45:19.812Z,39.90
2018-12-14T20:47:48.432Z,40.40
2018-12-14T20:50:19.127Z,41.00
2018-12-14T20:52:47.103Z,41.40
2018-12-14T20:55:14.987Z,41.30
2018-12-14T20:57:42.896Z,41.70
2018-12-14T21:00:11.447Z,39.60
2018-12-14T21:02:39.231Z,37.10
2018-12-14T21:05:08.693Z,36.90
2018-12-14T21:07:36.760Z,37.70
2018-12-14T21:10:05.210Z,36.80
2018-12-14T21:12:33.059Z,36.50
2018-12-14T21:15:00.867Z,35.60
2018-12-14T21:17:30.493Z,35.60
2018-12-14T21:19:59.386Z,35.10
2018-12-14T21:22:27.295Z,35.60
2018-12-14T21:24:56.443Z,35.10
2018-12-14T21:27:24.673Z,36.90
2018-12-14T21:29:52.788Z,35.20
2018-12-14T21:32:20.659Z,35.50
2018-12-14T21:34:49.047Z,36.20
2018-12-14T21:37:17.413Z,36.30
2018-12-14T21:39:45.880Z,35.30
2018-12-14T21:42:13.764Z,35.80
2018-12-14T21:44:44.106Z,36.80
2018-12-14T21:47:13.259Z,36.50
2018-12-14T21:49:41.449Z,36.60
2018-12-14T21:52:09.232Z,34.90
2018-12-14T21:54:38.029Z,34.50
2018-12-14T21:57:05.960Z,34.50
2018-12-14T21:59:35.898Z,33.80
2018-12-14T22:02:05.391Z,34.50
2018-12-14T22:04:33.466Z,33.60
2018-12-14T22:07:01.482Z,33.90
2018-12-14T22:09:29.313Z,34.20
2018-12-14T22:11:57.474Z,35.50
2018-12-14T22:14:25.517Z,35.10
2018-12-14T22:16:53.290Z,36.50
2018-12-14T22:19:22.409Z,37.20
2018-12-14T22:21:50.329Z,38.20
2018-12-14T22:24:18.699Z,39.60
2018-12-14T22:26:47.185Z,39.60
2018-12-14T22:29:15.015Z,40.00
2018-12-14T22:31:42.946Z,39.90
2018-12-14T22:34:10.917Z,40.70
2018-12-14T22:36:38.768Z,41.90
2018-12-14T22:39:08.840Z,41.90
2018-12-14T22:41:36.732Z,42.00
2018-12-14T22:44:08.451Z,42.10
2018-12-14T22:46:36.320Z,42.40
2018-12-14T22:49:05.218Z,42.40
2018-12-14T22:51:32.915Z,42.70
2018-12-14T22:54:00.685Z,43.20
2018-12-14T22:56:28.457Z,43.80
2018-12-14T22:58:56.914Z,43.70
2018-12-14T23:01:24.661Z,44.20
2018-12-14T23:03:52.424Z,44.10
2018-12-14T23:06:20.431Z,43.70
2018-12-14T23:08:48.244Z,44.40
2018-12-14T23:11:16.069Z,42.80
2018-12-14T23:13:44.593Z,42.60
2018-12-14T23:16:12.532Z,44.00
2018-12-14T23:21:12.993Z,41.70
2018-12-14T23:23:41.107Z,41.20
2018-12-14T23:26:08.865Z,40.20
2018-12-14T23:28:36.783Z,40.70
2018-12-14T23:31:05.401Z,41.10
2018-12-14T23:33:33.319Z,41.90
2018-12-14T23:36:01.291Z,41.30
2018-12-14T23:38:29.217Z,39.60
2018-12-14T23:40:57.011Z,40.30
2018-12-14T23:43:24.853Z,40.60
2018-12-14T23:45:52.876Z,38.60
2018-12-14T23:48:21.192Z,36.30
2018-12-14T23:50:49.149Z,33.90
2018-12-14T23:53:16.960Z,30.30
2018-12-14T23:55:44.959Z,30.00
2018-12-14T23:58:12.728Z,29.00
